Time;durP1;ratioP1;P1;durP2;ratioP2;P2;SDS_P1;SDS_P2;PMS_P1;PMS_P2;Temp;Humidity;BMP_temperature;BMP_pressure;BME280_temperature;BME280_humidity;BME280_pressure;Samples;Min_cycle;Max_cycle;Signal;HPM_P1;HPM_P2
2022/01/08 00:00:09;;;;;;;6.82;4.38;;;;;;;1.14;100.00;100236.88;842449;23;745;-54
2022/01/08 00:00:32;;;;;;;8.45;4.70;;;;;;;1.14;100.00;100230.00;843721;23;732;-53
2022/01/08 00:00:53;;;;;;;9.03;4.77;;;;;;;1.14;100.00;100224.00;844050;23;737;-54
2022/01/08 00:01:13;;;;;;;7.72;4.78;;;;;;;1.15;100.00;100231.75;842589;23;800;-55
2022/01/08 00:01:34;;;;;;;7.27;4.53;;;;;;;1.15;100.00;100233.44;843859;23;744;-55
2022/01/08 00:01:54;;;;;;;7.35;4.50;;;;;;;1.16;100.00;100232.63;843913;23;869;-55
2022/01/08 00:02:15;;;;;;;7.50;4.47;;;;;;;1.15;100.00;100231.75;844206;23;907;-53
2022/01/08 00:02:36;;;;;;;6.55;4.40;;;;;;;1.16;100.00;100233.50;842636;23;4244;-55
2022/01/08 00:02:57;;;;;;;7.68;4.45;;;;;;;1.17;100.00;100236.94;843967;23;891;-55
2022/01/08 00:03:17;;;;;;;6.75;4.43;;;;;;;1.16;100.00;100237.78;843802;23;930;-52
2022/01/08 00:03:41;;;;;;;7.32;4.63;;;;;;;1.17;100.00;100236.94;843408;23;756;-52
2022/01/08 00:04:01;;;;;;;7.75;4.65;;;;;;;1.16;100.00;100235.19;844426;23;862;-55
2022/01/08 00:04:21;;;;;;;8.95;5.03;;;;;;;1.14;100.00;100242.88;842388;23;776;-53
2022/01/08 00:04:42;;;;;;;9.27;4.87;;;;;;;1.14;100.00;100239.44;840094;23;825;-52
2022/01/08 00:05:03;;;;;;;7.35;4.88;;;;;;;1.14;100.00;100239.44;840036;23;895;-55
2022/01/08 00:05:23;;;;;;;6.90;4.80;;;;;;;1.13;100.00;100240.28;838019;23;966;-56
2022/01/08 00:05:44;;;;;;;7.80;4.80;;;;;;;1.13;100.00;100235.97;836917;23;4206;-56
2022/01/08 00:06:04;;;;;;;8.65;4.82;;;;;;;1.13;100.00;100235.97;839980;23;883;-52
2022/01/08 00:06:25;;;;;;;7.10;4.67;;;;;;;1.15;100.00;100236.03;839775;23;738;-52
2022/01/08 00:06:45;;;;;;;7.23;4.63;;;;;;;1.15;100.00;100238.59;843857;23;895;-52
2022/01/08 00:07:05;;;;;;;7.40;4.70;;;;;;;1.15;100.00;100236.03;844391;23;1253;-55
2022/01/08 00:07:27;;;;;;;8.32;5.13;;;;;;;1.15;100.00;100234.34;843754;23;1968;-56
2022/01/08 00:07:47;;;;;;;8.52;4.80;;;;;;;1.15;100.00;100228.28;844095;23;879;-52
2022/01/08 00:08:08;;;;;;;8.05;4.68;;;;;;;1.17;100.00;100236.94;844113;23;851;-54
2022/01/08 00:08:28;;;;;;;8.00;4.90;;;;;;;1.17;100.00;100236.94;843622;23;898;-56
2022/01/08 00:08:49;;;;;;;7.38;4.60;;;;;;;1.17;100.00;100234.38;837975;23;4374;-55
2022/01/08 00:09:09;;;;;;;8.27;4.80;;;;;;;1.17;100.00;100239.53;835885;23;924;-53
2022/01/08 00:09:30;;;;;;;7.70;4.87;;;;;;;1.17;100.00;100232.66;835249;23;792;-53
2022/01/08 00:09:50;;;;;;;8.18;5.15;;;;;;;1.18;100.00;100231.84;835607;23;760;-53
2022/01/08 00:10:11;;;;;;;7.17;4.83;;;;;;;1.18;100.00;100234.41;836064;23;781;-52
2022/01/08 00:10:32;;;;;;;8.23;4.97;;;;;;;1.20;100.00;100234.44;834813;23;808;-55
2022/01/08 00:10:53;;;;;;;7.72;4.78;;;;;;;1.19;100.00;100236.16;834662;23;959;-54
2022/01/08 00:11:18;;;;;;;7.15;4.75;;;;;;;1.19;100.00;100230.13;839863;23;958;-53
2022/01/08 00:11:42;;;;;;;8.55;5.15;;;;;;;1.18;100.00;100236.13;838706;23;4313;-55
2022/01/08 00:12:04;;;;;;;7.60;4.82;;;;;;;1.18;100.00;100230.97;839865;23;907;-51
2022/01/08 00:12:25;;;;;;;7.55;4.68;;;;;;;1.19;100.00;100240.41;839861;23;733;-53
2022/01/08 00:12:45;;;;;;;9.13;5.10;;;;;;;1.18;100.00;100234.41;842270;23;918;-51
2022/01/08 00:13:05;;;;;;;8.25;4.78;;;;;;;1.19;100.00;100231.00;842178;23;1130;-53
2022/01/08 00:13:26;;;;;;;9.23;5.10;;;;;;;1.19;100.00;100231.00;843885;23;776;-55
2022/01/08 00:13:47;;;;;;;9.48;5.30;;;;;;;1.20;100.00;100231.88;844326;23;985;-52
2022/01/08 00:14:10;;;;;;;8.25;5.00;;;;;;;1.19;100.00;100235.28;843513;23;856;-51
2022/01/08 00:14:31;;;;;;;8.23;5.00;;;;;;;1.18;100.00;100233.56;843560;23;844;-53
2022/01/08 00:14:51;;;;;;;8.37;5.20;;;;;;;1.17;100.00;100232.66;841801;23;4184;-55
2022/01/08 00:15:12;;;;;;;9.33;5.10;;;;;;;1.18;100.00;100230.97;844210;23;852;-53
2022/01/08 00:15:32;;;;;;;9.88;5.22;;;;;;;1.18;100.00;100231.84;843621;23;883;-54
2022/01/08 00:15:53;;;;;;;9.60;5.07;;;;;;;1.19;100.00;100228.44;838569;23;787;-53
2022/01/08 00:16:13;;;;;;;8.00;4.90;;;;;;;1.19;100.00;100231.00;839421;23;907;-53
2022/01/08 00:16:34;;;;;;;9.27;5.20;;;;;;;1.17;100.00;100232.66;833995;23;1788;-52
2022/01/08 00:16:54;;;;;;;8.63;5.00;;;;;;;1.18;100.00;100236.13;835042;23;785;-54
2022/01/08 00:17:15;;;;;;;7.90;4.85;;;;;;;1.18;100.00;100229.25;835181;23;955;-54
2022/01/08 00:17:36;;;;;;;8.48;4.90;;;;;;;1.18;100.00;100233.56;834904;23;4535;-51
2022/01/08 00:17:57;;;;;;;8.27;4.93;;;;;;;1.19;100.00;100230.13;840046;23;832;-54
2022/01/08 00:18:17;;;;;;;8.18;5.22;;;;;;;1.17;100.00;100231.81;839997;23;926;-51
2022/01/08 00:18:38;;;;;;;9.53;5.00;;;;;;;1.18;100.00;100233.56;843987;23;875;-54
2022/01/08 00:18:59;;;;;;;8.80;4.95;;;;;;;1.18;100.00;100233.56;843031;23;862;-55
2022/01/08 00:19:19;;;;;;;7.72;4.90;;;;;;;1.17;100.00;100226.66;843949;23;745;-53
2022/01/08 00:19:40;;;;;;;7.57;4.80;;;;;;;1.16;100.00;100230.03;843884;23;938;-52
2022/01/08 00:20:00;;;;;;;8.35;4.90;;;;;;;1.17;100.00;100234.38;843774;23;828;-51
2022/01/08 00:20:21;;;;;;;7.50;4.88;;;;;;;1.18;100.00;100225.81;839409;23;800;-55
2022/01/08 00:20:41;;;;;;;8.13;4.67;;;;;;;1.18;100.00;100236.13;838271;23;4197;-53
2022/01/08 00:21:02;;;;;;;8.07;5.00;;;;;;;1.18;100.00;100231.84;839518;23;868;-54
2022/01/08 00:21:22;;;;;;;9.93;5.07;;;;;;;1.17;100.00;100232.66;839711;23;768;-56
2022/01/08 00:21:43;;;;;;;8.88;4.82;;;;;;;1.18;100.00;100234.41;834582;23;861;-53
2022/01/08 00:22:03;;;;;;;7.57;4.93;;;;;;;1.17;100.00;100236.94;830718;23;1338;-51
2022/01/08 00:22:24;;;;;;;8.35;5.03;;;;;;;1.16;100.00;100228.38;830819;23;844;-51
2022/01/08 00:22:44;;;;;;;7.63;4.90;;;;;;;1.17;100.00;100231.81;831566;23;683;-55
2022/01/08 00:23:05;;;;;;;8.30;5.27;;;;;;;1.17;100.00;100232.66;826752;23;1082;-54
2022/01/08 00:23:25;;;;;;;8.60;5.20;;;;;;;1.17;100.00;100232.66;827660;23;773;-56
2022/01/08 00:23:46;;;;;;;8.77;5.10;;;;;;;1.17;100.00;100227.50;830288;23;4556;-53
2022/01/08 00:24:06;;;;;;;7.47;4.97;;;;;;;1.17;100.00;100232.66;835795;23;887;-53
2022/01/08 00:24:27;;;;;;;8.13;4.90;;;;;;;1.17;100.00;100230.09;839382;23;758;-53
2022/01/08 00:24:47;;;;;;;7.87;4.93;;;;;;;1.18;100.00;100229.25;839624;23;927;-51
2022/01/08 00:25:08;;;;;;;7.85;5.20;;;;;;;1.19;100.00;100235.28;843941;23;915;-54
2022/01/08 00:25:29;;;;;;;7.57;5.15;;;;;;;1.19;100.00;100236.16;838182;23;935;-56
2022/01/08 00:25:49;;;;;;;7.27;4.73;;;;;;;1.20;100.00;100231.88;839524;23;1013;-51
2022/01/08 00:26:09;;;;;;;8.25;5.13;;;;;;;1.20;100.00;100237.03;839874;23;876;-51
2022/01/08 00:26:30;;;;;;;7.67;4.63;;;;;;;1.21;100.00;100236.19;835200;23;840;-54
2022/01/08 00:26:51;;;;;;;8.32;4.75;;;;;;;1.22;100.00;100235.38;834145;23;4355;-51
2022/01/08 00:27:11;;;;;;;10.07;4.90;;;;;;;1.23;100.00;100236.22;836168;23;875;-53
2022/01/08 00:27:32;;;;;;;9.65;4.80;;;;;;;1.24;100.00;100232.84;839048;23;1925;-54
2022/01/08 00:27:52;;;;;;;8.32;4.88;;;;;;;1.24;100.00;100238.84;839866;23;752;-51
2022/01/08 00:28:12;;;;;;;7.80;4.70;;;;;;;1.25;100.00;100238.03;840326;23;907;-51
2022/01/08 00:28:33;;;;;;;7.55;4.85;;;;;;;1.26;100.00;100236.31;837126;23;1154;-55
2022/01/08 00:28:53;;;;;;;8.70;5.13;;;;;;;1.26;100.00;100241.47;839344;23;914;-55
2022/01/08 00:29:14;;;;;;;8.45;5.15;;;;;;;1.25;100.00;100240.59;839895;23;914;-52
2022/01/08 00:29:34;;;;;;;10.03;5.20;;;;;;;1.24;100.00;100238.84;838613;23;4531;-51
2022/01/08 00:29:55;;;;;;;9.48;5.32;;;;;;;1.25;100.00;100240.59;839704;23;823;-54
2022/01/08 00:30:16;;;;;;;8.95;5.35;;;;;;;1.24;100.00;100238.84;840588;23;903;-53
2022/01/08 00:30:36;;;;;;;8.30;5.33;;;;;;;1.24;100.00;100233.69;843446;23;856;-54
2022/01/08 00:30:56;;;;;;;7.18;5.28;;;;;;;1.25;100.00;100235.44;843829;23;927;-52
2022/01/08 00:31:17;;;;;;;8.70;5.50;;;;;;;1.26;100.00;100233.75;839944;23;823;-54
2022/01/08 00:31:37;;;;;;;7.90;5.20;;;;;;;1.27;100.00;100244.06;837972;23;831;-53
2022/01/08 00:31:58;;;;;;;7.50;4.63;;;;;;;1.27;100.00;100238.91;839724;23;840;-54
2022/01/08 00:32:18;;;;;;;8.70;4.68;;;;;;;1.27;100.00;100232.91;839250;23;781;-51
2022/01/08 00:32:40;;;;;;;7.13;5.00;;;;;;;1.28;100.00;100235.53;838204;23;5173;-54
2022/01/08 00:33:00;;;;;;;7.25;4.95;;;;;;;1.28;100.00;100234.66;838625;23;903;-53
2022/01/08 00:33:21;;;;;;;8.50;4.97;;;;;;;1.28;100.00;100235.53;842153;23;1031;-55
2022/01/08 00:33:41;;;;;;;8.57;5.20;;;;;;;1.27;100.00;100228.63;843293;23;918;-56
2022/01/08 00:34:01;;;;;;;8.60;4.82;;;;;;;1.28;100.00;100229.50;842596;23;842;-54
2022/01/08 00:34:22;;;;;;;8.60;4.80;;;;;;;1.29;100.00;100237.28;843310;23;1102;-55
2022/01/08 00:34:43;;;;;;;7.03;4.57;;;;;;;1.27;100.00;100230.34;842723;23;784;-52
2022/01/08 00:35:04;;;;;;;8.02;4.80;;;;;;;1.27;100.00;100233.78;839209;23;931;-52
2022/01/08 00:35:25;;;;;;;8.63;5.13;;;;;;;1.27;100.00;100228.63;843830;23;918;-58
2022/01/08 00:35:45;;;;;;;8.93;5.03;;;;;;;1.26;100.00;100232.06;841862;23;4370;-51
2022/01/08 00:36:06;;;;;;;7.55;4.90;;;;;;;1.26;100.00;100232.06;843942;23;839;-51
2022/01/08 00:36:27;;;;;;;7.78;4.95;;;;;;;1.25;100.00;100245.75;843887;23;868;-52
2022/01/08 00:36:47;;;;;;;8.40;5.00;;;;;;;1.26;100.00;100231.16;842607;23;949;-54
2022/01/08 00:37:07;;;;;;;7.80;5.03;;;;;;;1.25;100.00;100232.88;843594;23;737;-53
2022/01/08 00:37:28;;;;;;;7.05;4.85;;;;;;;1.26;100.00;100232.06;844049;23;836;-51
2022/01/08 00:37:49;;;;;;;7.50;4.87;;;;;;;1.26;100.00;100232.06;843867;23;883;-52
2022/01/08 00:38:09;;;;;;;8.90;5.30;;;;;;;1.26;100.00;100231.16;844099;23;725;-51
2022/01/08 00:38:29;;;;;;;8.23;5.10;;;;;;;1.27;100.00;100232.91;843974;23;844;-54
2022/01/08 00:38:50;;;;;;;7.93;5.30;;;;;;;1.26;100.00;100237.19;842109;23;4177;-55
2022/01/08 00:39:10;;;;;;;10.20;5.30;;;;;;;1.27;100.00;100235.50;843389;23;927;-51
2022/01/08 00:39:30;;;;;;;10.13;5.15;;;;;;;1.25;100.00;100235.44;843745;23;772;-53
2022/01/08 00:39:51;;;;;;;8.23;5.00;;;;;;;1.25;100.00;100238.03;844254;23;903;-52
2022/01/08 00:40:12;;;;;;;9.03;5.13;;;;;;;1.25;100.00;100235.44;843389;23;840;-52
2022/01/08 00:40:33;;;;;;;7.70;5.20;;;;;;;1.23;100.00;100234.53;843706;23;819;-56
2022/01/08 00:40:53;;;;;;;7.67;4.90;;;;;;;1.24;100.00;100238.00;842755;23;812;-54
2022/01/08 00:41:13;;;;;;;7.20;4.80;;;;;;;1.23;100.00;100237.09;843511;23;907;-53
2022/01/08 00:41:34;;;;;;;6.87;4.80;;;;;;;1.24;100.00;100238.84;842856;23;4324;-51
2022/01/08 00:41:54;;;;;;;7.82;4.82;;;;;;;1.25;100.00;100242.31;843568;23;939;-55
2022/01/08 00:42:14;;;;;;;8.27;5.07;;;;;;;1.25;100.00;100240.59;843939;23;851;-54
2022/01/08 00:42:36;;;;;;;7.70;5.10;;;;;;;1.25;100.00;100232.88;844141;23;958;-52
2022/01/08 00:42:56;;;;;;;8.00;5.10;;;;;;;1.26;100.00;100241.47;844008;23;935;-53
2022/01/08 00:43:17;;;;;;;9.20;5.18;;;;;;;1.26;100.00;100237.19;842077;23;907;-53
2022/01/08 00:43:37;;;;;;;8.43;5.33;;;;;;;1.27;100.00;100238.06;843362;23;938;-54
2022/01/08 00:43:57;;;;;;;10.40;5.45;;;;;;;1.28;100.00;100239.81;842085;23;1022;-55
2022/01/08 00:44:18;;;;;;;8.70;5.27;;;;;;;1.27;100.00;100233.78;843386;23;922;-52
2022/01/08 00:44:38;;;;;;;8.20;4.93;;;;;;;1.28;100.00;100238.09;842336;23;4462;-55
2022/01/08 00:44:59;;;;;;;7.73;4.80;;;;;;;1.28;100.00;100232.94;843818;23;899;-54
2022/01/08 00:45:20;;;;;;;7.20;4.90;;;;;;;1.28;100.00;100243.25;843419;23;906;-54
2022/01/08 00:45:40;;;;;;;7.43;4.93;;;;;;;1.27;100.00;100238.91;843867;23;832;-53
2022/01/08 00:46:01;;;;;;;7.57;4.77;;;;;;;1.27;100.00;100243.22;844499;23;804;-53
2022/01/08 00:46:21;;;;;;;9.13;5.05;;;;;;;1.26;100.00;100237.19;843533;23;907;-52
2022/01/08 00:46:44;;;;;;;8.47;4.87;;;;;;;1.25;100.00;100245.75;844189;23;675;-54
2022/01/08 00:47:05;;;;;;;7.88;4.90;;;;;;;1.24;100.00;100241.44;844097;23;851;-51
2022/01/08 00:47:25;;;;;;;7.30;4.80;;;;;;;1.24;100.00;100244.00;838902;23;1929;-52
2022/01/08 00:47:46;;;;;;;8.48;5.10;;;;;;;1.23;100.00;100239.66;838367;23;4382;-54
2022/01/08 00:48:06;;;;;;;9.03;5.07;;;;;;;1.23;100.00;100242.25;840097;23;764;-56
2022/01/08 00:48:26;;;;;;;8.40;5.07;;;;;;;1.23;100.00;100242.25;839207;23;939;-53
2022/01/08 00:48:47;;;;;;;7.68;5.00;;;;;;;1.23;100.00;100239.66;834124;23;797;-55
2022/01/08 00:49:07;;;;;;;8.30;5.20;;;;;;;1.24;100.00;100238.00;836265;23;769;-56
2022/01/08 00:49:27;;;;;;;8.20;5.20;;;;;;;1.23;100.00;100234.53;839277;23;920;-54
2022/01/08 00:49:48;;;;;;;8.33;5.40;;;;;;;1.25;100.00;100240.59;839908;23;839;-51
2022/01/08 00:50:10;;;;;;;9.10;5.30;;;;;;;1.24;100.00;100244.00;839468;23;812;-52
2022/01/08 00:52:06;;;;;;;8.23;5.05;;;;;;;1.24;100.00;100238.00;845921;23;1165;-86
2022/01/08 00:52:27;;;;;;;7.55;5.03;;;;;;;1.25;100.00;100243.19;842279;23;1239;-86
2022/01/08 00:52:50;;;;;;;8.27;5.32;;;;;;;1.28;100.00;100250.13;834145;23;1297;-85
2022/01/08 00:53:11;;;;;;;8.25;5.10;;;;;;;1.27;100.00;100262.09;834239;23;1134;-86
2022/01/08 00:53:41;;;;;;;8.93;5.20;;;;;;;1.27;100.00;100267.25;820404;23;4436;-86
2022/01/08 00:54:02;;;;;;;7.65;5.10;;;;;;;1.26;100.00;100250.09;829308;23;1236;-86
2022/01/08 00:54:23;;;;;;;8.10;5.10;;;;;;;1.28;100.00;100278.44;833449;23;1154;-86
2022/01/08 00:54:47;;;;;;;7.43;4.90;;;;;;;1.28;100.00;100244.97;829384;23;1342;-85
2022/01/08 00:55:09;;;;;;;8.20;5.32;;;;;;;1.25;100.00;100253.47;837792;23;1311;-85
2022/01/08 00:55:30;;;;;;;9.30;5.75;;;;;;;1.27;100.00;100249.22;838659;23;1222;-85
2022/01/08 00:55:50;;;;;;;8.70;5.68;;;;;;;1.24;100.00;100272.31;838310;23;1182;-86
2022/01/08 00:56:21;;;;;;;10.23;5.85;;;;;;;1.24;100.00;100274.91;832144;23;1254;-85
2022/01/08 00:56:41;;;;;;;8.88;5.70;;;;;;;1.22;100.00;100253.41;828448;23;4299;-85
2022/01/08 00:57:03;;;;;;;9.70;5.65;;;;;;;1.22;100.00;100270.53;829820;23;1212;-85
2022/01/08 00:57:23;;;;;;;8.68;5.38;;;;;;;1.24;100.00;100266.31;834306;23;856;-85
2022/01/08 00:57:44;;;;;;;8.43;5.53;;;;;;;1.21;100.00;100249.06;833896;23;1230;-85
2022/01/08 00:58:04;;;;;;;9.88;5.55;;;;;;;1.24;100.00;100244.00;839301;23;733;-85
2022/01/08 00:58:25;;;;;;;9.97;5.67;;;;;;;1.23;100.00;100257.69;838366;23;1184;-86
2022/01/08 00:58:46;;;;;;;9.98;5.40;;;;;;;1.24;100.00;100241.44;839505;23;753;-86
2022/01/08 00:59:06;;;;;;;9.35;5.95;;;;;;;1.25;100.00;100250.03;834938;23;1166;-86
2022/01/08 00:59:30;;;;;;;10.40;5.80;;;;;;;1.26;100.00;100244.94;839179;23;840;-86
2022/01/08 00:59:51;;;;;;;8.80;5.43;;;;;;;1.26;100.00;100232.06;824788;23;4278;-85
2022/01/08 01:00:13;;;;;;;8.05;5.57;;;;;;;1.30;100.00;100245.84;833328;23;1121;-85
2022/01/08 01:00:33;;;;;;;8.32;5.57;;;;;;;1.29;100.00;100257.88;833560;23;1240;-85
2022/01/08 01:00:54;;;;;;;8.20;5.15;;;;;;;1.29;100.00;100269.91;838804;23;915;-86
2022/01/08 01:01:15;;;;;;;10.05;5.38;;;;;;;1.28;100.00;100269.00;835514;23;931;-85
2022/01/08 01:01:35;;;;;;;10.18;5.35;;;;;;;1.29;100.00;100236.41;835148;23;784;-86
2022/01/08 01:01:56;;;;;;;8.20;5.10;;;;;;;1.31;100.00;100238.16;834102;23;1240;-85
2022/01/08 01:02:17;;;;;;;7.95;5.25;;;;;;;1.30;100.00;100254.47;838206;23;1026;-86
2022/01/08 01:02:39;;;;;;;8.97;5.50;;;;;;;1.30;100.00;100267.34;836219;23;4389;-86
2022/01/08 01:02:59;;;;;;;7.72;5.60;;;;;;;1.30;100.00;100245.84;829488;23;1293;-85
2022/01/08 01:03:20;;;;;;;7.40;5.68;;;;;;;1.31;100.00;100261.34;834691;23;840;-85
2022/01/08 01:03:43;;;;;;;8.38;5.50;;;;;;;1.27;100.00;100246.66;837308;23;1273;-86
2022/01/08 01:04:06;;;;;;;9.63;5.53;;;;;;;1.27;100.00;100264.69;832400;23;1252;-85
2022/01/08 01:04:27;;;;;;;9.15;5.43;;;;;;;1.27;100.00;100276.69;833919;23;1428;-85
2022/01/08 01:04:47;;;;;;;8.32;5.40;;;;;;;1.26;100.00;100270.69;834186;23;1134;-85
2022/01/08 01:05:09;;;;;;;9.63;5.80;;;;;;;1.25;100.00;100268.06;839963;23;1079;-86
2022/01/08 01:05:30;;;;;;;9.93;5.80;;;;;;;1.25;100.00;100276.66;837566;23;1175;-86
2022/01/08 01:05:51;;;;;;;8.13;5.63;;;;;;;1.22;100.00;100253.41;836776;23;4284;-85
2022/01/08 01:06:11;;;;;;;8.38;5.82;;;;;;;1.23;100.00;100254.25;838529;23;781;-86
2022/01/08 01:06:34;;;;;;;8.60;6.03;;;;;;;1.24;100.00;100269.75;829607;23;1365;-86
2022/01/08 01:06:55;;;;;;;8.05;5.53;;;;;;;1.23;100.00;100273.16;831897;23;859;-86
2022/01/08 01:07:16;;;;;;;8.38;5.50;;;;;;;1.25;100.00;100281.81;828473;23;1176;-86
2022/01/08 01:07:37;;;;;;;8.90;5.35;;;;;;;1.26;100.00;100249.19;832368;23;2056;-86
2022/01/08 01:07:57;;;;;;;8.43;5.50;;;;;;;1.27;100.00;100256.09;835528;23;837;-86
2022/01/08 01:08:18;;;;;;;8.10;5.40;;;;;;;1.29;100.00;100255.31;829678;23;1285;-86
2022/01/08 01:08:40;;;;;;;8.57;5.53;;;;;;;1.28;100.00;100256.13;832179;23;4233;-86
2022/01/08 01:09:01;;;;;;;9.20;5.85;;;;;;;1.28;100.00;100247.53;837931;23;1258;-86
2022/01/08 01:09:21;;;;;;;9.23;6.00;;;;;;;1.28;100.00;100273.28;833191;23;1236;-86
2022/01/08 01:09:42;;;;;;;7.80;5.60;;;;;;;1.25;100.00;100279.22;833734;23;1149;-85
2022/01/08 01:10:04;;;;;;;7.60;5.20;;;;;;;1.26;100.00;100262.06;829361;23;1139;-85
2022/01/08 01:10:32;;;;;;;8.30;5.40;;;;;;;1.23;100.00;100273.16;833307;23;1336;-86
2022/01/08 01:10:52;;;;;;;8.98;5.63;;;;;;;1.21;100.00;100254.22;832993;23;1361;-86
2022/01/08 01:11:13;;;;;;;9.02;5.65;;;;;;;1.22;100.00;100271.44;840902;23;1255;-86
2022/01/08 01:11:36;;;;;;;9.52;5.85;;;;;;;1.25;100.00;100280.94;836947;23;4469;-85
2022/01/08 01:11:57;;;;;;;9.43;5.68;;;;;;;1.26;100.00;100267.22;829226;23;1289;-86
2022/01/08 01:12:18;;;;;;;8.05;5.53;;;;;;;1.26;100.00;100262.94;833956;23;1188;-86
2022/01/08 01:12:39;;;;;;;8.95;6.00;;;;;;;1.27;100.00;100245.78;837466;23;1398;-86
2022/01/08 01:13:00;;;;;;;8.87;5.80;;;;;;;1.27;100.00;100253.50;829406;23;1154;-86
2022/01/08 01:13:20;;;;;;;9.00;5.82;;;;;;;1.26;100.00;100268.09;833142;23;1126;-86
2022/01/08 01:13:41;;;;;;;9.00;6.20;;;;;;;1.27;100.00;100259.53;834133;23;1038;-86
2022/01/08 01:14:01;;;;;;;9.30;6.00;;;;;;;1.25;100.00;100256.06;836802;23;1218;-86
2022/01/08 01:14:23;;;;;;;9.45;6.15;;;;;;;1.24;100.00;100282.63;837110;23;1208;-86
2022/01/08 01:14:45;;;;;;;8.60;5.90;;;;;;;1.22;100.00;100279.16;833753;23;4272;-86
2022/01/08 01:15:08;;;;;;;10.40;6.03;;;;;;;1.24;100.00;100279.19;829754;23;1141;-86
2022/01/08 01:15:29;;;;;;;10.45;5.95;;;;;;;1.20;100.00;100249.91;833464;23;1339;-86
2022/01/08 01:15:49;;;;;;;8.98;5.72;;;;;;;1.22;100.00;100249.94;834126;23;1081;-86
2022/01/08 01:16:10;;;;;;;9.60;5.90;;;;;;;1.23;100.00;100262.84;838764;23;1125;-86
2022/01/08 01:16:30;;;;;;;10.85;6.05;;;;;;;1.23;100.00;100283.44;836692;23;1176;-86
2022/01/08 01:16:52;;;;;;;10.33;5.63;;;;;;;1.23;100.00;100252.53;839445;23;1006;-86
2022/01/08 01:17:12;;;;;;;8.95;5.50;;;;;;;1.25;100.00;100255.19;830635;23;1276;-87
2022/01/08 01:17:33;;;;;;;6.97;5.20;;;;;;;1.24;100.00;100249.16;830012;23;4508;-86
2022/01/08 01:17:53;;;;;;;8.83;5.37;;;;;;;1.26;100.00;100257.81;831204;23;939;-86
2022/01/08 01:18:14;;;;;;;9.40;5.30;;;;;;;1.28;100.00;100261.28;833027;23;1289;-85
2022/01/08 01:18:36;;;;;;;7.50;5.30;;;;;;;1.27;100.00;100264.69;833071;23;1245;-86
2022/01/08 01:18:59;;;;;;;7.28;5.03;;;;;;;1.26;100.00;100286.13;837763;23;1218;-86
2022/01/08 01:19:21;;;;;;;8.85;5.40;;;;;;;1.27;100.00;100253.50;842064;23;1515;-86
2022/01/08 01:19:42;;;;;;;6.97;5.07;;;;;;;1.26;100.00;100278.41;830194;23;1357;-86
2022/01/08 01:20:04;;;;;;;8.43;5.40;;;;;;;1.30;100.00;100274.19;839160;23;1085;-86
2022/01/08 01:20:25;;;;;;;8.43;5.50;;;;;;;1.29;100.00;100255.31;832989;23;1353;-86
2022/01/08 01:20:46;;;;;;;7.53;5.32;;;;;;;1.30;100.00;100284.50;836741;23;4247;-86
2022/01/08 01:21:06;;;;;;;7.65;5.35;;;;;;;1.27;100.00;100249.22;833532;23;1285;-86
2022/01/08 01:21:27;;;;;;;9.73;5.80;;;;;;;1.29;100.00;100257.03;842687;23;1117;-86
2022/01/08 01:21:48;;;;;;;8.40;5.43;;;;;;;1.27;100.00;100267.25;841684;23;1158;-86
2022/01/08 01:22:13;;;;;;;8.70;5.45;;;;;;;1.25;100.00;100268.94;846081;23;1322;-86
2022/01/08 01:22:46;;;;;;;8.35;5.45;;;;;;;1.27;100.00;100269.81;842015;23;1288;-87
2022/01/08 01:23:17;;;;;;;8.88;5.60;;;;;;;1.29;100.00;100285.34;841679;23;899;-86
2022/01/08 01:23:48;;;;;;;9.60;5.82;;;;;;;1.30;100.00;100276.75;832034;23;4246;-86
2022/01/08 01:24:15;;;;;;;10.80;5.80;;;;;;;1.29;100.00;100270.75;840730;23;1425;-86
2022/01/08 01:24:41;;;;;;;9.38;5.28;;;;;;;1.30;100.00;100295.69;837376;23;1247;-86
2022/01/08 01:25:06;;;;;;;8.13;5.70;;;;;;;1.30;100.00;100300.84;841861;23;1511;-86
2022/01/08 01:25:33;;;;;;;9.20;5.75;;;;;;;1.28;100.00;100250.97;833606;23;1487;-87
2022/01/08 01:25:59;;;;;;;8.90;5.50;;;;;;;1.29;100.00;100247.56;833672;23;883;-86
2022/01/08 01:26:24;;;;;;;8.43;5.40;;;;;;;1.28;100.00;100248.41;837446;23;1389;-86
2022/01/08 01:27:11;;;;;;;8.68;5.13;;;;;;;1.29;100.00;100250.16;831903;23;4280;-88
2022/01/08 01:28:38;;;;;;;7.72;5.50;;;;;;;1.32;100.00;100257.94;837453;23;1524;-84
2022/01/08 01:29:25;;;;;;;8.93;5.80;;;;;;;1.29;100.00;100273.34;842332;23;922;-85
2022/01/08 01:30:15;;;;;;;9.70;5.75;;;;;;;1.29;100.00;100273.34;834198;23;1215;-85
2022/01/08 01:41:38;;;;;;;9.55;6.05;;;;;;;1.19;100.00;100266.16;837013;23;1135;-87
2022/01/08 01:46:59;;;;;;;7.82;5.72;;;;;;;1.25;100.00;100274.09;832813;23;1165;-87
2022/01/08 01:47:03;;;;;;;9.15;5.70;;;;;;;1.25;100.00;100292.09;837032;23;1399;-87
2022/01/08 01:47:36;;;;;;;8.70;5.65;;;;;;;1.28;100.00;100269.00;837494;23;1940;-87
2022/01/08 01:47:57;;;;;;;9.10;5.90;;;;;;;1.29;100.00;100283.63;827483;23;4851;-87
2022/01/08 01:48:20;;;;;;;9.27;5.90;;;;;;;1.31;100.00;100281.09;833727;23;1240;-87
2022/01/08 01:48:40;;;;;;;10.57;5.90;;;;;;;1.31;100.00;100288.81;829412;23;1416;-87
2022/01/08 01:49:01;;;;;;;10.13;5.73;;;;;;;1.25;100.00;100304.97;830406;23;1250;-87
2022/01/08 01:49:21;;;;;;;9.38;5.78;;;;;;;1.24;100.00;100310.94;825947;23;1237;-87
2022/01/08 01:49:48;;;;;;;9.05;5.57;;;;;;;1.23;100.00;100298.91;818585;24;1271;-87
2022/01/08 01:50:09;;;;;;;10.52;5.88;;;;;;;1.23;100.00;100275.72;826491;23;990;-87
2022/01/08 01:50:29;;;;;;;9.13;5.90;;;;;;;1.25;100.00;100292.09;834076;23;1273;-87
2022/01/08 01:50:53;;;;;;;8.13;5.77;;;;;;;1.27;100.00;100307.59;829742;23;4243;-87
2022/01/08 01:51:23;;;;;;;8.07;5.40;;;;;;;1.30;100.00;100295.69;825799;23;944;-87
2022/01/08 01:51:44;;;;;;;8.15;5.45;;;;;;;1.31;100.00;100297.41;831649;23;1018;-87
2022/01/08 01:52:07;;;;;;;8.68;5.50;;;;;;;1.28;100.00;100305.06;825746;23;1187;-87
2022/01/08 01:52:28;;;;;;;9.90;5.75;;;;;;;1.28;100.00;100275.88;834198;23;1319;-87
2022/01/08 01:52:51;;;;;;;8.35;5.63;;;;;;;1.24;100.00;100305.81;833506;23;1307;-87
2022/01/08 01:53:15;;;;;;;10.18;5.88;;;;;;;1.23;100.00;100296.31;834070;23;1517;-87
2022/01/08 01:53:35;;;;;;;9.82;5.95;;;;;;;1.24;100.00;100276.63;835328;23;1378;-87
2022/01/08 01:53:56;;;;;;;8.63;5.50;;;;;;;1.23;100.00;100277.44;832398;23;5663;-86
2022/01/08 01:54:17;;;;;;;8.32;5.93;;;;;;;1.25;100.00;100280.94;837673;23;1331;-87
2022/01/08 01:54:38;;;;;;;9.50;6.07;;;;;;;1.24;100.00;100279.19;837322;23;1257;-87
2022/01/08 01:54:58;;;;;;;9.18;5.85;;;;;;;1.24;100.00;100318.69;833421;23;1339;-87
2022/01/08 01:55:19;;;;;;;8.25;5.63;;;;;;;1.24;100.00;100282.63;833524;23;1228;-87
2022/01/08 01:55:41;;;;;;;9.57;6.10;;;;;;;1.23;100.00;100291.19;833208;23;1067;-87
2022/01/08 01:56:02;;;;;;;9.07;5.68;;;;;;;1.20;100.00;100314.28;837243;23;1248;-87
2022/01/08 01:56:26;;;;;;;9.70;6.00;;;;;;;1.19;100.00;100272.22;833540;23;1372;-87
2022/01/08 01:56:46;;;;;;;9.38;6.20;;;;;;;1.18;100.00;100279.91;833316;23;4237;-87
2022/01/08 01:57:10;;;;;;;9.32;6.18;;;;;;;1.18;100.00;100279.91;830172;23;1179;-87
2022/01/08 01:57:31;;;;;;;8.77;5.95;;;;;;;1.19;100.00;100286.78;830497;23;1401;-87
2022/01/08 01:57:53;;;;;;;9.00;6.05;;;;;;;1.19;100.00;100271.31;830219;23;1209;-87
2022/01/08 01:58:14;;;;;;;7.55;5.57;;;;;;;1.19;100.00;100297.06;832396;23;1295;-87
2022/01/08 01:58:35;;;;;;;8.10;5.95;;;;;;;1.19;100.00;100271.31;829665;23;1339;-87
2022/01/08 01:58:56;;;;;;;8.10;5.90;;;;;;;1.22;100.00;100310.06;837392;23;1259;-87
2022/01/08 01:59:19;;;;;;;8.85;5.82;;;;;;;1.19;100.00;100271.31;837295;23;1293;-87
2022/01/08 01:59:40;;;;;;;10.10;6.05;;;;;;;1.21;100.00;100292.84;829262;23;4224;-87
2022/01/08 02:00:01;;;;;;;10.52;6.38;;;;;;;1.17;100.00;100283.28;830059;23;1151;-87
2022/01/08 02:00:34;;;;;;;9.52;6.10;;;;;;;1.16;100.00;100267.00;829375;23;702;-87
2022/01/08 02:00:57;;;;;;;8.00;6.15;;;;;;;1.17;100.00;100275.56;835082;23;813;-87
2022/01/08 02:01:18;;;;;;;8.55;6.32;;;;;;;1.14;100.00;100308.97;839016;23;1176;-87
2022/01/08 02:01:44;;;;;;;8.68;6.18;;;;;;;1.10;100.00;100284.81;833419;23;1300;-87
2022/01/08 02:02:09;;;;;;;9.48;6.10;;;;;;;1.11;100.00;100272.81;829730;23;1408;-87
2022/01/08 02:02:32;;;;;;;9.90;6.18;;;;;;;1.09;100.00;100264.19;831448;23;829;-87